createdAt,value
2022-09-11T00:01:29.849Z,3.70
2022-09-11T00:03:58.419Z,4.00
2022-09-11T00:06:30.214Z,3.97
2022-09-11T00:09:01.329Z,3.55
2022-09-11T00:11:31.681Z,3.30
2022-09-11T00:14:00.558Z,3.50
2022-09-11T00:16:32.931Z,3.60
2022-09-11T00:19:03.033Z,3.65
2022-09-11T00:21:31.443Z,3.50
2022-09-11T00:24:00.087Z,3.70
2022-09-11T00:26:28.654Z,3.50
2022-09-11T00:28:57.480Z,3.88
2022-09-11T00:31:28.435Z,4.15
2022-09-11T00:33:58.347Z,4.00
2022-09-11T00:36:29.104Z,3.33
2022-09-11T00:38:58.084Z,3.85
2022-09-11T00:41:30.964Z,3.42
2022-09-11T00:44:02.391Z,3.85
2022-09-11T00:46:35.161Z,4.00
2022-09-11T00:49:16.887Z,3.85
2022-09-11T00:54:14.819Z,2.90
2022-09-11T00:56:44.024Z,3.78
2022-09-11T00:59:12.885Z,3.50
2022-09-11T01:01:42.086Z,3.78
2022-09-11T01:04:12.083Z,3.45
2022-09-11T01:06:41.037Z,3.10
2022-09-11T01:09:09.394Z,3.30
2022-09-11T01:11:46.170Z,3.22
2022-09-11T01:14:25.388Z,3.42
2022-09-11T01:16:55.875Z,3.28
2022-09-11T01:19:38.456Z,3.17
2022-09-11T01:22:22.619Z,3.17
2022-09-11T01:24:57.550Z,2.92
2022-09-11T01:27:42.065Z,2.60
2022-09-11T01:30:12.793Z,2.72
2022-09-11T01:32:46.766Z,2.93
2022-09-11T01:35:19.160Z,2.55
2022-09-11T01:37:55.178Z,2.60
2022-09-11T01:40:26.439Z,2.78
2022-09-11T01:43:00.962Z,2.92
2022-09-11T01:45:31.381Z,2.88
2022-09-11T01:48:00.204Z,3.30
2022-09-11T01:50:30.396Z,2.80
2022-09-11T01:53:00.704Z,2.85
2022-09-11T01:55:32.144Z,2.75
2022-09-11T01:58:06.793Z,3.15
2022-09-11T02:00:36.905Z,3.10
2022-09-11T02:03:09.343Z,2.83
2022-09-11T02:05:41.861Z,3.17
2022-09-11T02:08:14.400Z,3.15
2022-09-11T02:10:47.170Z,3.78
2022-09-11T02:13:20.381Z,3.90
2022-09-11T02:15:52.264Z,3.20
2022-09-11T02:18:27.080Z,4.00
2022-09-11T02:20:56.029Z,3.80
2022-09-11T02:23:24.464Z,3.60
2022-09-11T02:25:52.635Z,3.67
2022-09-11T02:28:22.197Z,3.53
2022-09-11T02:30:50.722Z,3.60
2022-09-11T02:33:32.964Z,3.70
2022-09-11T02:36:23.144Z,3.58
2022-09-11T02:38:59.483Z,3.55
2022-09-11T02:41:32.454Z,3.60
2022-09-11T02:44:09.230Z,3.50
2022-09-11T02:47:05.754Z,3.42
2022-09-11T02:49:44.384Z,3.20
2022-09-11T02:52:20.945Z,3.53
2022-09-11T02:54:54.909Z,3.40
2022-09-11T02:57:30.248Z,3.55
2022-09-11T03:00:02.046Z,3.72
2022-09-11T03:02:32.172Z,3.70
2022-09-11T03:05:00.460Z,3.83
2022-09-11T03:07:28.771Z,3.65
2022-09-11T03:09:57.154Z,3.58
2022-09-11T03:12:25.404Z,3.60
2022-09-11T03:14:53.732Z,3.50
2022-09-11T03:17:23.626Z,3.70
2022-09-11T03:19:51.761Z,3.50
2022-09-11T03:22:20.006Z,3.15
2022-09-11T03:24:48.301Z,3.67
2022-09-11T03:27:17.301Z,3.80
2022-09-11T03:29:46.693Z,3.30
2022-09-11T03:32:16.313Z,3.25
2022-09-11T03:34:47.202Z,3.30
2022-09-11T03:37:16.101Z,3.53
2022-09-11T03:39:44.330Z,3.25
2022-09-11T03:42:12.769Z,3.42
2022-09-11T03:44:41.632Z,2.92
2022-09-11T03:47:09.705Z,3.17
2022-09-11T03:49:38.131Z,3.10
2022-09-11T03:52:08.000Z,3.30
2022-09-11T03:54:36.282Z,3.42
2022-09-11T03:57:04.611Z,3.50
2022-09-11T03:59:33.056Z,3.65
2022-09-11T04:02:01.500Z,3.47
2022-09-11T04:04:29.789Z,3.60
2022-09-11T04:06:58.472Z,3.80
2022-09-11T04:09:28.735Z,3.33
2022-09-11T04:11:56.893Z,3.58
2022-09-11T04:14:25.492Z,3.90
2022-09-11T04:16:54.876Z,4.35
2022-09-11T04:19:23.894Z,3.97
2022-09-11T04:21:52.438Z,3.90
2022-09-11T04:24:20.669Z,3.83
2022-09-11T04:26:50.255Z,4.13
2022-09-11T04:29:18.910Z,4.13
2022-09-11T04:31:47.073Z,3.88
2022-09-11T04:34:15.365Z,3.28
2022-09-11T04:36:43.867Z,3.35
2022-09-11T04:39:12.590Z,3.70
2022-09-11T04:41:40.736Z,3.28
2022-09-11T04:44:10.669Z,3.45
2022-09-11T04:46:39.129Z,3.80
2022-09-11T04:49:08.324Z,3.35
2022-09-11T04:51:38.377Z,3.40
2022-09-11T04:54:07.930Z,2.80
2022-09-11T04:56:38.751Z,3.50
2022-09-11T04:59:13.312Z,3.15
2022-09-11T05:01:44.273Z,3.22
2022-09-11T05:06:42.571Z,3.20
2022-09-11T05:09:12.106Z,3.13
2022-09-11T05:11:40.847Z,3.38
2022-09-11T05:14:09.143Z,3.60
2022-09-11T05:16:37.993Z,3.95
2022-09-11T05:19:08.000Z,3.50
2022-09-11T05:21:36.757Z,3.70
2022-09-11T05:24:05.782Z,3.15
2022-09-11T05:26:36.598Z,3.75
2022-09-11T05:29:07.447Z,4.20
2022-09-11T05:31:37.358Z,3.78
2022-09-11T05:34:07.496Z,4.53
2022-09-11T05:36:36.044Z,4.60
2022-09-11T05:39:05.169Z,3.80
2022-09-11T05:41:33.591Z,4.05
2022-09-11T05:44:01.875Z,3.78
2022-09-11T05:46:30.263Z,4.07
2022-09-11T05:48:59.423Z,3.92
2022-09-11T05:51:28.955Z,3.75
2022-09-11T05:53:58.249Z,3.78
2022-09-11T05:56:29.977Z,4.30
2022-09-11T05:58:58.913Z,4.20
2022-09-11T06:01:28.973Z,4.25
2022-09-11T06:03:58.195Z,4.50
2022-09-11T06:06:28.134Z,4.78
2022-09-11T06:08:56.243Z,4.28
2022-09-11T06:11:24.566Z,4.13
2022-09-11T06:13:53.292Z,4.00
2022-09-11T06:16:23.129Z,3.80
2022-09-11T06:18:52.244Z,3.67
2022-09-11T06:21:22.172Z,4.80
2022-09-11T06:23:53.644Z,4.40
2022-09-11T06:26:23.513Z,4.25
2022-09-11T06:28:51.990Z,4.15
2022-09-11T06:31:22.332Z,4.13
2022-09-11T06:33:51.564Z,4.03
2022-09-11T06:36:21.286Z,4.65
2022-09-11T06:38:55.779Z,3.40
2022-09-11T06:41:25.277Z,4.32
2022-09-11T06:43:53.963Z,2.92
2022-09-11T06:46:24.214Z,3.78
2022-09-11T06:48:53.583Z,4.40
2022-09-11T06:51:23.047Z,3.70
2022-09-11T06:53:56.332Z,3.53
2022-09-11T06:56:25.434Z,3.13
2022-09-11T06:58:53.578Z,3.70
2022-09-11T07:01:22.896Z,2.88
2022-09-11T07:03:53.101Z,3.33
2022-09-11T07:06:22.837Z,3.53
2022-09-11T07:08:52.504Z,3.25
2022-09-11T07:11:22.627Z,3.83
2022-09-11T07:13:50.769Z,3.60
2022-09-11T07:16:19.061Z,4.18
2022-09-11T07:18:48.585Z,3.95
2022-09-11T07:21:18.564Z,4.90
2022-09-11T07:23:48.881Z,6.07
2022-09-11T07:26:18.554Z,6.00
2022-09-11T07:28:49.013Z,6.60
2022-09-11T07:31:20.994Z,6.07
2022-09-11T07:33:51.581Z,5.90
2022-09-11T07:36:21.863Z,5.93
2022-09-11T07:39:04.945Z,6.18
2022-09-11T07:41:33.470Z,5.50
2022-09-11T07:44:04.188Z,6.30
2022-09-11T07:46:33.042Z,5.22
2022-09-11T07:49:02.124Z,4.72
2022-09-11T07:51:30.735Z,4.80
2022-09-11T07:54:00.224Z,4.75
2022-09-11T07:56:29.194Z,4.90
2022-09-11T07:59:21.279Z,4.53
2022-09-11T08:01:50.240Z,4.20
2022-09-11T08:04:18.756Z,4.20
2022-09-11T08:06:47.698Z,3.90
2022-09-11T08:09:16.791Z,3.78
2022-09-11T08:11:48.720Z,4.07
2022-09-11T08:14:17.861Z,4.18
2022-09-11T08:16:48.486Z,3.70
2022-09-11T08:19:19.096Z,4.17
2022-09-11T08:21:48.308Z,3.45
2022-09-11T08:24:18.113Z,3.83
2022-09-11T08:26:49.009Z,3.97
2022-09-11T08:29:18.434Z,4.63
2022-09-11T08:31:48.008Z,4.10
2022-09-11T08:34:16.438Z,4.25
2022-09-11T08:36:45.650Z,3.97
2022-09-11T08:39:14.073Z,3.08
2022-09-11T08:41:48.379Z,2.90
2022-09-11T08:44:21.321Z,3.25
2022-09-11T08:46:55.166Z,2.28
2022-09-11T08:49:26.422Z,2.40
2022-09-11T08:51:56.669Z,2.53
2022-09-11T08:54:27.741Z,2.20
2022-09-11T08:57:01.531Z,2.40
2022-09-11T08:59:39.085Z,2.35
2022-09-11T09:02:18.622Z,2.05
2022-09-11T09:05:05.065Z,2.50
2022-09-11T09:07:41.853Z,2.70
2022-09-11T09:10:17.533Z,2.28
2022-09-11T09:12:52.151Z,2.47
2022-09-11T09:15:29.502Z,2.83
2022-09-11T09:18:02.682Z,2.70
2022-09-11T09:20:34.463Z,2.92
2022-09-11T09:23:05.495Z,3.47
2022-09-11T09:25:37.457Z,3.70
2022-09-11T09:28:13.948Z,3.60
2022-09-11T09:30:46.588Z,4.10
2022-09-11T09:33:27.703Z,4.53
2022-09-11T09:35:57.907Z,5.60
2022-09-11T09:38:29.449Z,5.30
2022-09-11T09:41:14.797Z,5.15
2022-09-11T09:43:51.583Z,5.63
2022-09-11T09:46:27.621Z,5.40
2022-09-11T09:48:57.204Z,5.40
2022-09-11T09:51:25.671Z,5.13
2022-09-11T09:53:56.731Z,4.80
2022-09-11T09:56:26.270Z,4.15
2022-09-11T09:59:01.053Z,4.30
2022-09-11T10:01:50.346Z,3.88
2022-09-11T10:04:23.191Z,4.00
2022-09-11T10:06:53.165Z,3.65
2022-09-11T10:09:27.474Z,3.53
2022-09-11T10:12:02.011Z,3.28
2022-09-11T10:15:02.031Z,3.83
2022-09-11T10:17:24.362Z,3.33
2022-09-11T10:19:55.388Z,3.23
2022-09-11T10:22:29.645Z,3.80
2022-09-11T10:25:07.197Z,3.60
2022-09-11T10:27:42.111Z,3.80
2022-09-11T10:30:27.127Z,4.60
2022-09-11T10:33:05.977Z,3.75
2022-09-11T10:35:37.865Z,3.75
2022-09-11T10:38:18.139Z,4.05
2022-09-11T10:40:58.705Z,3.72
2022-09-11T10:43:38.297Z,3.97
2022-09-11T10:46:22.858Z,4.50
2022-09-11T10:48:56.390Z,4.05
2022-09-11T10:51:27.733Z,2.85
2022-09-11T10:54:03.577Z,3.30
2022-09-11T10:56:34.379Z,2.95
2022-09-11T10:59:05.620Z,2.20
2022-09-11T11:04:02.838Z,2.67
2022-09-11T11:06:46.059Z,2.17
2022-09-11T11:09:31.159Z,1.70
2022-09-11T11:12:11.073Z,1.98
2022-09-11T11:14:56.946Z,1.90
2022-09-11T11:17:31.899Z,1.77
2022-09-11T11:20:11.011Z,2.20
2022-09-11T11:23:01.037Z,1.95
2022-09-11T11:25:38.355Z,1.10
2022-09-11T11:28:25.163Z,1.45
2022-09-11T11:31:01.147Z,1.52
2022-09-11T11:33:39.763Z,1.60
2022-09-11T11:36:11.627Z,1.60
2022-09-11T11:38:44.547Z,1.20
2022-09-11T11:41:16.739Z,1.52
2022-09-11T11:43:45.584Z,1.27
2022-09-11T11:46:18.297Z,1.50
2022-09-11T11:48:52.115Z,1.60
2022-09-11T11:51:22.152Z,2.00
2022-09-11T11:53:59.217Z,1.47
2022-09-11T11:56:34.099Z,1.10
2022-09-11T11:59:05.448Z,1.70
2022-09-11T12:01:37.693Z,1.50
2022-09-11T12:04:14.545Z,1.10
2022-09-11T12:06:43.396Z,1.27
2022-09-11T12:09:17.301Z,1.50
2022-09-11T12:11:48.334Z,1.17
2022-09-11T12:14:29.080Z,1.42
2022-09-11T12:16:58.361Z,1.92
2022-09-11T12:19:27.067Z,1.58
2022-09-11T12:22:16.357Z,1.35
2022-09-11T12:24:59.030Z,1.50
2022-09-11T12:27:53.503Z,1.52
2022-09-11T12:30:27.017Z,1.30
2022-09-11T12:32:56.052Z,1.33
2022-09-11T12:35:30.161Z,1.27
2022-09-11T12:38:04.113Z,1.30
2022-09-11T12:40:39.110Z,1.02
2022-09-11T12:43:42.078Z,0.95
2022-09-11T12:46:13.495Z,1.30
2022-09-11T12:48:43.344Z,1.17
2022-09-11T12:51:21.905Z,1.08
2022-09-11T12:53:53.256Z,1.27
2022-09-11T12:56:34.947Z,1.50
2022-09-11T12:59:05.037Z,1.30
2022-09-11T13:01:36.006Z,1.40
2022-09-11T13:04:13.084Z,1.30
2022-09-11T13:06:44.590Z,1.33
2022-09-11T13:11:49.918Z,1.67
2022-09-11T13:14:46.066Z,1.40
2022-09-11T13:17:25.959Z,1.67
2022-09-11T13:19:55.668Z,1.05
2022-09-11T13:22:31.223Z,1.80
2022-09-11T13:25:07.266Z,1.60
2022-09-11T13:27:40.150Z,1.10
2022-09-11T13:30:09.502Z,1.35
2022-09-11T13:32:38.138Z,1.17
2022-09-11T13:35:11.156Z,1.30
2022-09-11T13:37:41.753Z,1.00
2022-09-11T13:40:19.521Z,1.10
2022-09-11T13:42:50.149Z,1.88
2022-09-11T13:45:20.540Z,1.60
2022-09-11T13:47:49.112Z,1.63
2022-09-11T13:50:20.956Z,1.48
2022-09-11T13:52:49.384Z,1.60
2022-09-11T13:55:20.109Z,1.25
2022-09-11T13:57:54.702Z,1.65
2022-09-11T14:00:40.774Z,1.52
2022-09-11T14:03:18.217Z,1.35
2022-09-11T14:05:51.581Z,1.17
2022-09-11T14:08:27.337Z,1.30
2022-09-11T14:10:59.437Z,1.17
2022-09-11T14:13:33.293Z,1.10
2022-09-11T14:16:04.620Z,1.38
2022-09-11T14:21:04.222Z,1.40
2022-09-11T14:23:32.789Z,1.25
2022-09-11T14:26:09.116Z,1.30
2022-09-11T14:29:10.464Z,1.50
2022-09-11T14:31:40.916Z,1.50
2022-09-11T14:34:13.796Z,1.45
2022-09-11T14:36:45.180Z,1.40
2022-09-11T14:39:23.891Z,1.38
2022-09-11T14:41:52.179Z,1.30
2022-09-11T14:44:22.276Z,1.80
2022-09-11T14:46:50.563Z,2.38
2022-09-11T14:49:18.665Z,2.60
2022-09-11T14:51:53.400Z,1.80
2022-09-11T14:54:22.852Z,2.20
2022-09-11T14:56:51.184Z,2.33
2022-09-11T14:59:20.977Z,3.15
2022-09-11T15:01:52.464Z,3.38
2022-09-11T15:04:23.176Z,2.58
2022-09-11T15:06:54.190Z,2.42
2022-09-11T15:09:23.166Z,2.78
2022-09-11T15:11:52.426Z,3.00
2022-09-11T15:14:44.695Z,2.72
2022-09-11T15:17:12.770Z,2.65
2022-09-11T15:19:41.076Z,3.22
2022-09-11T15:22:09.842Z,3.72
2022-09-11T15:24:38.203Z,3.55
2022-09-11T15:27:06.518Z,4.32
2022-09-11T15:29:36.348Z,4.15
2022-09-11T15:32:06.354Z,4.90
2022-09-11T15:34:34.794Z,6.13
2022-09-11T15:37:03.212Z,6.90
2022-09-11T15:39:32.227Z,7.38
2022-09-11T15:42:01.984Z,9.90
2022-09-11T15:44:30.702Z,10.90
2022-09-11T15:47:00.618Z,7.53
2022-09-11T15:49:29.572Z,5.55
2022-09-11T15:51:59.105Z,4.57
2022-09-11T15:54:28.090Z,4.38
2022-09-11T15:56:57.394Z,4.07
2022-09-11T15:59:25.758Z,4.75
2022-09-11T16:01:54.262Z,4.43
2022-09-11T16:04:28.321Z,4.47
2022-09-11T16:06:56.859Z,4.88
2022-09-11T16:09:27.061Z,5.30
2022-09-11T16:11:56.188Z,6.72
2022-09-11T16:14:25.707Z,5.97
2022-09-11T16:16:54.691Z,5.55
2022-09-11T16:19:28.308Z,4.97
2022-09-11T16:21:57.789Z,5.35
2022-09-11T16:24:27.842Z,4.90
2022-09-11T16:26:56.680Z,4.60
2022-09-11T16:29:44.079Z,5.07
2022-09-11T16:32:28.634Z,5.18
2022-09-11T16:34:59.820Z,4.55
2022-09-11T16:37:28.354Z,5.10
2022-09-11T16:39:56.982Z,4.50
2022-09-11T16:42:26.670Z,4.72
2022-09-11T16:44:55.369Z,4.97
2022-09-11T16:47:24.877Z,4.97
2022-09-11T16:50:09.154Z,5.07
2022-09-11T16:52:39.144Z,5.07
2022-09-11T16:55:10.781Z,4.40
2022-09-11T16:57:39.824Z,6.25
2022-09-11T17:00:09.893Z,6.45
2022-09-11T17:02:38.833Z,5.85
2022-09-11T17:05:08.630Z,4.93
2022-09-11T17:07:41.674Z,4.95
2022-09-11T17:10:10.999Z,4.50
2022-09-11T17:12:39.195Z,4.75
2022-09-11T17:15:08.780Z,4.82
2022-09-11T17:17:38.065Z,3.95
2022-09-11T17:20:09.550Z,5.32
2022-09-11T17:22:39.490Z,4.70
2022-09-11T17:25:08.268Z,4.68
2022-09-11T17:27:37.224Z,5.00
2022-09-11T17:30:06.009Z,4.10
2022-09-11T17:32:34.428Z,3.58
2022-09-11T17:35:02.794Z,3.63
2022-09-11T17:37:33.088Z,3.40
2022-09-11T17:40:03.273Z,2.70
2022-09-11T17:42:32.422Z,3.80
2022-09-11T17:45:01.570Z,3.20
2022-09-11T17:47:31.810Z,3.22
2022-09-11T17:50:01.570Z,3.30
2022-09-11T17:52:30.030Z,3.95
2022-09-11T17:54:58.402Z,3.22
2022-09-11T17:57:28.433Z,3.40
2022-09-11T17:59:56.716Z,3.10
2022-09-11T18:02:25.206Z,3.22
2022-09-11T18:04:54.309Z,3.25
2022-09-11T18:07:22.419Z,3.08
2022-09-11T18:09:55.568Z,3.60
2022-09-11T18:12:25.851Z,3.13
2022-09-11T18:14:57.135Z,3.20
2022-09-11T18:17:25.452Z,2.90
2022-09-11T18:19:53.697Z,3.35
2022-09-11T18:22:22.547Z,3.35
2022-09-11T18:24:51.616Z,2.90
2022-09-11T18:27:20.018Z,3.50
2022-09-11T18:29:50.100Z,3.08
2022-09-11T18:32:20.192Z,3.33
2022-09-11T18:34:49.785Z,3.83
2022-09-11T18:37:18.453Z,2.88
2022-09-11T18:39:48.427Z,3.80
2022-09-11T18:42:18.132Z,3.35
2022-09-11T18:44:46.364Z,3.60
2022-09-11T18:47:14.706Z,3.42
2022-09-11T18:49:46.160Z,3.95
2022-09-11T18:52:14.727Z,3.40
2022-09-11T18:54:43.093Z,3.20
2022-09-11T18:57:11.328Z,3.30
2022-09-11T18:59:39.593Z,3.50
2022-09-11T19:02:08.390Z,3.97
2022-09-11T19:04:36.703Z,4.20
2022-09-11T19:07:06.461Z,3.78
2022-09-11T19:09:35.469Z,4.40
2022-09-11T19:12:05.471Z,4.57
2022-09-11T19:14:36.082Z,4.72
2022-09-11T19:17:04.450Z,5.38
2022-09-11T19:19:32.832Z,5.45
2022-09-11T19:22:01.122Z,4.97
2022-09-11T19:24:31.330Z,5.03
2022-09-11T19:27:00.329Z,4.65
2022-09-11T19:29:28.602Z,4.40
2022-09-11T19:31:57.028Z,4.00
2022-09-11T19:34:25.094Z,4.15
2022-09-11T19:36:53.993Z,4.38
2022-09-11T19:39:22.597Z,4.18
2022-09-11T19:41:52.189Z,4.43
2022-09-11T19:44:21.153Z,4.88
2022-09-11T19:46:53.550Z,4.68
2022-09-11T19:49:22.030Z,4.50
2022-09-11T19:51:53.015Z,6.18
2022-09-11T19:54:22.477Z,6.30
2022-09-11T19:56:52.748Z,6.47
2022-09-11T19:59:21.246Z,7.43
2022-09-11T20:01:49.443Z,8.05
2022-09-11T20:04:19.208Z,6.30
2022-09-11T20:09:31.850Z,5.38
2022-09-11T20:12:02.532Z,4.60
2022-09-11T20:14:31.517Z,4.57
2022-09-11T20:17:01.202Z,4.75
2022-09-11T20:19:30.085Z,5.53
2022-09-11T20:22:00.485Z,5.18
2022-09-11T20:24:29.085Z,5.38
2022-09-11T20:26:57.868Z,4.75
2022-09-11T20:29:28.065Z,5.63
2022-09-11T20:31:56.463Z,4.55
2022-09-11T20:34:28.093Z,5.55
2022-09-11T20:36:57.089Z,4.88
2022-09-11T20:39:25.543Z,5.45
2022-09-11T20:41:53.652Z,6.03
2022-09-11T20:44:21.762Z,5.38
2022-09-11T20:46:51.535Z,5.65
2022-09-11T20:49:19.823Z,5.00
2022-09-11T20:51:48.216Z,5.10
2022-09-11T20:54:16.954Z,5.57
2022-09-11T20:56:46.449Z,5.78
2022-09-11T20:59:14.818Z,5.40
2022-09-11T21:01:43.413Z,5.70
2022-09-11T21:04:13.343Z,5.32
2022-09-11T21:06:41.778Z,5.53
2022-09-11T21:09:11.976Z,5.57
2022-09-11T21:11:41.221Z,5.15
2022-09-11T21:14:09.516Z,6.20
2022-09-11T21:16:38.215Z,5.88
2022-09-11T21:19:07.093Z,6.20
2022-09-11T21:21:38.002Z,6.35
2022-09-11T21:24:10.222Z,5.60
2022-09-11T21:26:38.564Z,5.82
2022-09-11T21:29:08.493Z,5.80
2022-09-11T21:31:41.286Z,5.35
2022-09-11T21:34:10.170Z,5.35
2022-09-11T21:36:39.912Z,5.88
2022-09-11T21:39:07.992Z,4.97
2022-09-11T21:41:36.507Z,5.68
2022-09-11T21:44:04.948Z,5.53
2022-09-11T21:46:33.104Z,5.63
2022-09-11T21:49:01.827Z,5.93
2022-09-11T21:51:30.115Z,5.60
2022-09-11T21:54:01.733Z,5.65
2022-09-11T21:56:33.165Z,5.57
2022-09-11T21:59:01.899Z,5.55
2022-09-11T22:01:31.814Z,5.40
2022-09-11T22:04:01.224Z,5.00
2022-09-11T22:06:30.071Z,5.35
2022-09-11T22:09:00.557Z,5.38
2022-09-11T22:11:29.096Z,5.38
2022-09-11T22:13:57.184Z,5.60
2022-09-11T22:16:25.427Z,5.22
2022-09-11T22:18:55.707Z,6.22
2022-09-11T22:21:24.119Z,5.30
2022-09-11T22:23:52.813Z,4.85
2022-09-11T22:26:23.929Z,6.10
2022-09-11T22:28:52.886Z,5.65
2022-09-11T22:31:23.814Z,5.85
2022-09-11T22:33:52.276Z,5.53
2022-09-11T22:36:24.402Z,5.55
2022-09-11T22:38:53.370Z,5.25
2022-09-11T22:41:23.256Z,5.75
2022-09-11T22:43:51.515Z,5.47
2022-09-11T22:46:21.285Z,5.88
2022-09-11T22:48:49.774Z,5.75
2022-09-11T22:51:17.878Z,5.50
2022-09-11T22:53:46.966Z,6.18
2022-09-11T22:56:15.321Z,5.80
2022-09-11T22:58:45.049Z,5.45
2022-09-11T23:01:21.068Z,5.70
2022-09-11T23:03:50.954Z,5.95
2022-09-11T23:06:38.236Z,6.85
2022-09-11T23:09:07.738Z,7.35
2022-09-11T23:11:36.180Z,6.95
2022-09-11T23:14:09.335Z,7.00
2022-09-11T23:16:41.947Z,7.05
2022-09-11T23:19:13.170Z,6.78
2022-09-11T23:21:41.613Z,6.10
2022-09-11T23:24:13.366Z,6.13
2022-09-11T23:26:41.997Z,5.75
2022-09-11T23:29:12.390Z,5.30
2022-09-11T23:31:40.526Z,6.15
2022-09-11T23:34:10.059Z,5.07
2022-09-11T23:36:38.451Z,5.95
2022-09-11T23:39:06.619Z,6.88
2022-09-11T23:41:34.831Z,6.90
2022-09-11T23:44:03.642Z,6.22
2022-09-11T23:46:33.752Z,6.00
2022-09-11T23:49:01.880Z,5.60
2022-09-11T23:51:30.352Z,6.53
2022-09-11T23:53:58.431Z,6.53
2022-09-11T23:56:26.616Z,6.47
2022-09-11T23:58:54.940Z,6.07
